Appleton, New York
Current Conditions -  °F | °C
As of 7:53 AM on Friday 24 Oct 2014 (Local Time) from KIAG Reporting Station
Few Clouds Few Clouds  
Wind Chill: 39°   Ceiling: Unl
Heat Index: 39°   Visibility: 10mi
Dew Point: 36°   Wind: 3mph
Humidity: 89%   Direction: 290°WNW
Pressure: 30.04"   Gusts: NA
Location:  43.33°N, 78.65°W
Report Text: KIAG 241153Z COR 29003KT 10SM FEW140 FEW220 04/02 A3004 RMK AO2 SLP180 T00390022 10072 20028 51005 COR 1159
Loading
Personal Weather Stations






























Interactive Weather Map New forecast layout! Learn more

10-Day Weather Forecast

Advertisements
Track Severe Weather on mobile